Cambuci, Brazil
Current Conditions -  °F | °C
As of 6:00 PM on Wednesday 28 Jan 2015 (Local Time) from SBCP Reporting Station
Few Clouds Few Clouds  
Wind Chill: 88°   Ceiling: Unl
Heat Index: 94°   Visibility: 6mi
Dew Point: 72°   Wind: 25mph
Humidity: 58%   Direction: 70°ENE
Pressure: 29.88"   Gusts: NA
Location:  21.58°S, 41.91°W
Report Text: SBCP 282000Z 07022KT 9999 FEW020 31/22 Q1012
Loading
Personal Weather Stations






























Interactive Weather Map New forecast layout! Learn more

10-Day Weather Forecast

Advertisements
Track Severe Weather on mobile